Pagrindinis puslapis
METAR-TAF:

METAR-TAF

Oro uostai :

Rostovas prie Dono, Rusija

platuma: 47-29-38N, ilguma: 039-55-29E, Aukštis: 65 m

Dabartinis oras

Ataskaita buvo paskelbta 22 minutes, ne 18:30 UTC
Ramus vėjas
Temperatūra 14°C
Drėgmė 36%
Slėgis 1020 hPa
Matomumas 10 km arba daugiau
nėra debesų žemiau 1500 m ir nėra kamuolinių lietaus debesų

METAR: URRP 151830Z 00000MPS CAVOK 14/M01 Q1020 R05/CLRD70 NOSIG RMK QFE760/1014

Laikas: 21:52 (18:52 UTC)

Prognozė

Ataskaita buvo paskelbta 1 valandą ir 54 minutes, ne 16:58 UTC
Prognozė galioja nuo 15 metu 18 UTC su 16 metu 18 UTC
Vėjas 6 kt iš Šiaurės/Šiaurės Vakarų su gūsio iki 16 kt
Matomumas 10 km arba daugiau
Išsisklaidę debesys ne aukštis 3000 ft
Tapsmas
nuo 16 metu 00 UTC su 16 metu 03 UTC
Vėjas 6 kt iš Vakarų/Pietvakarių su gūsio iki 17 kt
Laikinai
nuo 16 metu 06 UTC su 16 metu 15 UTC
Vėjas 12 kt iš Pietvakarių su gūsio iki 23 kt

TAF: URRP 151658Z 1518/1618 33003G08MPS 9999 SCT030 TX24/1612Z TN09/1603Z BECMG 1600/1603 24003G09MPS TEMPO 1606/1615 22006G12MPS

Orai ataskaitas ir orų prognozės (METAR, TAF).

turimą stotys yra geltonos ir raudonos taškus žemėlapyje.

Perkelti pele per norėdami pamatyti stoties vardą.

Tada spustelėkite, norėdami matyti oro stebėjimo ir prognozės.

Norėdami pakeisti žemėlapį: spustelėkite ant žalios mygtukų su juodo kryžiaus žemyn,; žalią mygtuką su brūkšneliu, jei norite nutolinti; arba žalių rodyklių gretimoms žemėlapius.


METAR-TAF: